createdAt,value
2023-05-19T00:02:20.903Z,2.03
2023-05-19T00:04:48.351Z,1.60
2023-05-19T00:07:19.802Z,1.77
2023-05-19T00:09:46.887Z,1.75
2023-05-19T00:12:14.157Z,1.70
2023-05-19T00:14:41.207Z,1.70
2023-05-19T00:17:08.389Z,1.70
2023-05-19T00:19:35.100Z,1.70
2023-05-19T00:22:01.858Z,1.70
2023-05-19T00:24:28.780Z,1.90
2023-05-19T00:26:55.767Z,1.67
2023-05-19T00:29:22.269Z,1.75
2023-05-19T00:31:48.969Z,1.58
2023-05-19T00:34:15.766Z,1.73
2023-05-19T00:36:42.460Z,1.70
2023-05-19T00:39:09.165Z,1.75
2023-05-19T00:41:36.095Z,1.80
2023-05-19T00:44:02.847Z,2.10
2023-05-19T00:46:30.668Z,1.70
2023-05-19T00:48:57.433Z,1.73
2023-05-19T00:51:26.830Z,1.83
2023-05-19T00:53:53.908Z,1.60
2023-05-19T00:56:21.724Z,1.98
2023-05-19T00:58:51.464Z,1.60
2023-05-19T01:01:18.925Z,1.90
2023-05-19T01:03:47.047Z,1.60
2023-05-19T01:06:14.983Z,1.83
2023-05-19T01:08:41.812Z,1.50
2023-05-19T01:11:08.770Z,1.80
2023-05-19T01:13:36.840Z,1.70
2023-05-19T01:16:26.065Z,1.98
2023-05-19T01:18:56.193Z,1.60
2023-05-19T01:22:03.106Z,1.73
2023-05-19T01:24:35.440Z,1.70
2023-05-19T01:27:21.006Z,1.67
2023-05-19T01:30:19.244Z,1.80
2023-05-19T01:32:47.771Z,1.55
2023-05-19T01:35:16.611Z,1.70
2023-05-19T01:37:45.338Z,1.60
2023-05-19T01:40:13.451Z,1.90
2023-05-19T01:42:40.922Z,1.70
2023-05-19T01:45:10.611Z,1.70
2023-05-19T01:47:41.929Z,1.67
2023-05-19T01:50:09.410Z,1.80
2023-05-19T01:52:35.949Z,2.05
2023-05-19T01:55:02.701Z,1.83
2023-05-19T01:58:09.280Z,2.00
2023-05-19T02:01:09.614Z,1.95
2023-05-19T02:03:47.991Z,1.67
2023-05-19T02:06:35.628Z,1.90
2023-05-19T02:09:12.037Z,1.90
2023-05-19T02:11:47.019Z,2.05
2023-05-19T02:14:30.335Z,1.70
2023-05-19T02:16:58.574Z,2.00
2023-05-19T02:19:28.333Z,2.20
2023-05-19T02:21:55.222Z,2.10
2023-05-19T02:24:22.855Z,2.20
2023-05-19T02:26:51.807Z,1.88
2023-05-19T02:29:19.399Z,1.95
2023-05-19T02:31:46.767Z,1.60
2023-05-19T02:34:13.534Z,1.80
2023-05-19T02:36:43.008Z,2.03
2023-05-19T02:39:11.107Z,1.70
2023-05-19T02:41:38.658Z,1.80
2023-05-19T02:44:05.520Z,1.73
2023-05-19T02:46:32.490Z,1.90
2023-05-19T02:48:59.581Z,2.10
2023-05-19T02:51:26.384Z,1.85
2023-05-19T02:53:53.100Z,1.75
2023-05-19T02:56:19.842Z,2.20
2023-05-19T02:58:46.657Z,1.95
2023-05-19T03:01:13.379Z,1.90
2023-05-19T03:03:40.274Z,1.88
2023-05-19T03:06:08.781Z,1.92
2023-05-19T03:08:36.477Z,1.95
2023-05-19T03:11:03.733Z,2.13
2023-05-19T03:13:30.531Z,1.80
2023-05-19T03:15:59.175Z,1.70
2023-05-19T03:18:26.788Z,1.90
2023-05-19T03:20:54.112Z,2.10
2023-05-19T03:23:22.221Z,1.98
2023-05-19T03:25:48.964Z,1.77
2023-05-19T03:28:15.850Z,2.00
2023-05-19T03:30:42.689Z,2.17
2023-05-19T03:33:09.520Z,1.95
2023-05-19T03:35:36.322Z,2.03
2023-05-19T03:38:03.020Z,2.22
2023-05-19T03:40:29.787Z,2.17
2023-05-19T03:42:56.781Z,1.98
2023-05-19T03:45:23.615Z,2.00
2023-05-19T03:47:50.636Z,2.20
2023-05-19T03:50:17.406Z,1.97
2023-05-19T03:52:46.726Z,2.00
2023-05-19T03:55:14.723Z,2.38
2023-05-19T03:57:42.048Z,2.10
2023-05-19T04:00:11.253Z,2.33
2023-05-19T04:02:38.288Z,2.00
2023-05-19T04:05:05.393Z,2.00
2023-05-19T04:07:32.196Z,2.05
2023-05-19T04:09:58.914Z,1.92
2023-05-19T04:12:25.739Z,2.10
2023-05-19T04:14:52.519Z,2.13
2023-05-19T04:17:19.279Z,2.35
2023-05-19T04:19:46.060Z,1.92
2023-05-19T04:22:12.855Z,2.20
2023-05-19T04:24:39.534Z,2.10
2023-05-19T04:27:12.047Z,2.07
2023-05-19T04:29:40.036Z,2.10
2023-05-19T04:32:07.745Z,1.98
2023-05-19T04:34:35.467Z,1.80
2023-05-19T04:37:02.656Z,1.90
2023-05-19T04:39:29.345Z,2.13
2023-05-19T04:41:56.626Z,2.15
2023-05-19T04:44:23.367Z,2.05
2023-05-19T04:46:54.282Z,2.00
2023-05-19T04:49:21.206Z,2.00
2023-05-19T04:51:50.294Z,2.17
2023-05-19T04:54:17.264Z,1.98
2023-05-19T04:56:44.129Z,2.30
2023-05-19T04:59:10.818Z,2.20
2023-05-19T05:01:40.380Z,3.30
2023-05-19T05:04:07.549Z,2.30
2023-05-19T05:06:34.433Z,1.83
2023-05-19T05:09:01.189Z,2.05
2023-05-19T05:11:28.243Z,2.20
2023-05-19T05:13:58.148Z,2.10
2023-05-19T05:16:25.845Z,2.15
2023-05-19T05:18:52.883Z,2.00
2023-05-19T05:21:19.941Z,1.80
2023-05-19T05:23:46.925Z,1.88
2023-05-19T05:26:23.214Z,2.40
2023-05-19T05:28:50.475Z,2.08
2023-05-19T05:31:17.256Z,1.75
2023-05-19T05:33:44.386Z,3.03
2023-05-19T05:36:11.139Z,2.45
2023-05-19T05:38:37.908Z,1.95
2023-05-19T05:41:04.738Z,2.05
2023-05-19T05:43:31.548Z,2.17
2023-05-19T05:45:58.431Z,2.05
2023-05-19T05:48:25.565Z,2.50
2023-05-19T05:50:53.029Z,2.42
2023-05-19T05:53:21.309Z,2.10
2023-05-19T05:55:48.413Z,2.35
2023-05-19T05:58:16.954Z,2.50
2023-05-19T06:00:43.927Z,2.20
2023-05-19T06:03:11.230Z,2.33
2023-05-19T06:05:38.686Z,2.20
2023-05-19T06:08:05.988Z,1.65
2023-05-19T06:10:36.730Z,2.45
2023-05-19T06:13:03.747Z,2.28
2023-05-19T06:15:31.007Z,2.25
2023-05-19T06:17:58.135Z,2.10
2023-05-19T06:20:24.876Z,1.90
2023-05-19T06:22:51.564Z,2.10
2023-05-19T06:25:18.296Z,2.45
2023-05-19T06:27:45.034Z,2.13
2023-05-19T06:30:12.394Z,2.40
2023-05-19T06:32:39.238Z,2.05
2023-05-19T06:35:06.254Z,2.53
2023-05-19T06:37:32.985Z,2.20
2023-05-19T06:39:59.727Z,2.08
2023-05-19T06:42:26.486Z,2.30
2023-05-19T06:44:53.410Z,2.28
2023-05-19T06:47:20.193Z,2.15
2023-05-19T06:49:50.686Z,2.45
2023-05-19T06:52:17.611Z,2.38
2023-05-19T06:54:44.353Z,2.70
2023-05-19T06:57:11.158Z,2.50
2023-05-19T06:59:40.778Z,1.85
2023-05-19T07:02:08.094Z,2.30
2023-05-19T07:04:35.558Z,2.47
2023-05-19T07:07:03.009Z,2.10
2023-05-19T07:09:29.755Z,2.50
2023-05-19T07:11:56.647Z,2.10
2023-05-19T07:14:23.593Z,2.20
2023-05-19T07:16:50.443Z,2.20
2023-05-19T07:19:19.618Z,2.25
2023-05-19T07:21:47.090Z,2.25
2023-05-19T07:24:14.016Z,2.25
2023-05-19T07:26:41.498Z,2.10
2023-05-19T07:29:08.236Z,2.20
2023-05-19T07:31:35.017Z,2.50
2023-05-19T07:34:01.740Z,2.33
2023-05-19T07:36:28.537Z,2.53
2023-05-19T07:38:56.038Z,2.25
2023-05-19T07:41:23.152Z,2.60
2023-05-19T07:43:50.009Z,2.20
2023-05-19T07:46:16.972Z,2.45
2023-05-19T07:48:44.018Z,2.20
2023-05-19T07:51:12.373Z,2.75
2023-05-19T07:53:39.269Z,2.25
2023-05-19T07:56:06.508Z,2.10
2023-05-19T07:58:33.296Z,2.10
2023-05-19T08:01:00.391Z,2.35
2023-05-19T08:03:27.710Z,2.10
2023-05-19T08:05:54.581Z,2.50
2023-05-19T08:08:21.922Z,2.22
2023-05-19T08:10:48.597Z,1.98
2023-05-19T08:13:15.264Z,2.38
2023-05-19T08:15:42.660Z,2.30
2023-05-19T08:18:09.649Z,2.38
2023-05-19T08:20:37.730Z,2.50
2023-05-19T08:23:04.528Z,2.47
2023-05-19T08:25:31.626Z,2.20
2023-05-19T08:27:58.340Z,2.03
2023-05-19T08:30:25.125Z,2.25
2023-05-19T08:32:52.001Z,2.00
2023-05-19T08:35:18.872Z,1.88
2023-05-19T08:37:45.921Z,1.92
2023-05-19T08:40:17.679Z,1.73
2023-05-19T08:42:45.924Z,2.13
2023-05-19T08:45:13.249Z,1.70
2023-05-19T08:47:45.630Z,1.77
2023-05-19T08:50:17.055Z,1.90
2023-05-19T08:53:01.515Z,1.80
2023-05-19T08:55:37.118Z,1.67
2023-05-19T08:58:05.074Z,1.80
2023-05-19T09:00:32.862Z,1.60
2023-05-19T09:03:16.973Z,1.70
2023-05-19T09:05:46.550Z,1.60
2023-05-19T09:08:13.793Z,1.52
2023-05-19T09:10:40.901Z,1.70
2023-05-19T09:13:07.678Z,1.88
2023-05-19T09:15:38.821Z,1.70
2023-05-19T09:18:15.237Z,1.70
2023-05-19T09:20:43.769Z,1.60
2023-05-19T09:23:15.841Z,1.50
2023-05-19T09:25:51.522Z,1.85
2023-05-19T09:28:29.304Z,1.60
2023-05-19T09:31:04.675Z,1.63
2023-05-19T09:33:35.678Z,1.70
2023-05-19T09:36:05.497Z,2.10
2023-05-19T09:38:32.794Z,1.67
2023-05-19T09:41:00.713Z,1.80
2023-05-19T09:43:29.257Z,1.50
2023-05-19T09:46:12.915Z,1.60
2023-05-19T09:48:41.427Z,1.50
2023-05-19T09:51:10.665Z,1.50
2023-05-19T09:53:38.814Z,1.80
2023-05-19T09:56:08.633Z,1.60
2023-05-19T09:58:36.223Z,1.50
2023-05-19T10:01:04.381Z,1.65
2023-05-19T10:03:32.953Z,1.63
2023-05-19T10:06:01.623Z,1.60
2023-05-19T10:08:30.587Z,1.58
2023-05-19T10:10:58.277Z,1.60
2023-05-19T10:13:26.553Z,1.40
2023-05-19T10:15:58.933Z,1.50
2023-05-19T10:18:27.647Z,1.60
2023-05-19T10:20:55.012Z,1.90
2023-05-19T10:23:22.415Z,1.60
2023-05-19T10:25:51.241Z,1.65
2023-05-19T10:28:21.040Z,1.60
2023-05-19T10:30:50.948Z,1.60
2023-05-19T10:33:19.692Z,1.80
2023-05-19T10:36:09.143Z,1.50
2023-05-19T10:38:46.241Z,1.83
2023-05-19T10:41:24.593Z,1.73
2023-05-19T10:43:56.167Z,1.60
2023-05-19T10:46:26.352Z,2.00
2023-05-19T10:48:53.839Z,1.50
2023-05-19T10:51:20.918Z,1.90
2023-05-19T10:53:49.890Z,1.55
2023-05-19T10:56:36.122Z,1.92
2023-05-19T10:59:03.721Z,1.50
2023-05-19T11:01:33.357Z,1.60
2023-05-19T11:04:06.898Z,1.65
2023-05-19T11:06:36.422Z,1.90
2023-05-19T11:09:10.494Z,1.70
2023-05-19T11:11:54.508Z,1.80
2023-05-19T11:14:23.531Z,1.60
2023-05-19T11:16:52.070Z,1.60
2023-05-19T11:19:25.472Z,1.80
2023-05-19T11:21:55.157Z,2.00
2023-05-19T11:24:40.135Z,1.85
2023-05-19T11:27:26.230Z,1.80
2023-05-19T11:29:54.137Z,1.50
2023-05-19T11:32:22.942Z,1.50
2023-05-19T11:34:50.325Z,1.70
2023-05-19T11:37:17.338Z,1.75
2023-05-19T11:39:46.082Z,1.77
2023-05-19T11:42:13.186Z,1.73
2023-05-19T11:44:41.310Z,1.70
2023-05-19T11:47:08.704Z,1.90
2023-05-19T11:49:35.681Z,1.48
2023-05-19T11:52:03.210Z,1.63
2023-05-19T11:54:32.273Z,1.80
2023-05-19T11:57:02.867Z,1.50
2023-05-19T11:59:34.833Z,1.70
2023-05-19T12:02:19.887Z,1.75
2023-05-19T12:04:49.136Z,1.67
2023-05-19T12:07:18.279Z,1.52
2023-05-19T12:09:46.755Z,1.65
2023-05-19T12:12:15.768Z,1.60
2023-05-19T12:14:43.320Z,1.70
2023-05-19T12:17:12.261Z,1.65
2023-05-19T12:19:40.101Z,1.77
2023-05-19T12:22:08.087Z,1.60
2023-05-19T12:24:36.869Z,1.67
2023-05-19T12:27:26.975Z,1.90
2023-05-19T12:29:55.298Z,1.88
2023-05-19T12:32:25.854Z,1.80
2023-05-19T12:34:55.974Z,1.90
2023-05-19T12:37:26.098Z,1.73
2023-05-19T12:39:53.092Z,1.65
2023-05-19T12:42:19.801Z,1.73
2023-05-19T12:44:51.671Z,1.77
2023-05-19T12:47:19.973Z,1.65
2023-05-19T12:49:56.911Z,1.55
2023-05-19T12:52:23.989Z,1.70
2023-05-19T12:54:58.085Z,1.60
2023-05-19T12:57:26.400Z,1.80
2023-05-19T12:59:53.789Z,1.52
2023-05-19T13:02:21.274Z,1.70
2023-05-19T13:04:48.410Z,1.80
2023-05-19T13:07:15.224Z,1.73
2023-05-19T13:09:42.172Z,1.80
2023-05-19T13:12:09.033Z,1.63
2023-05-19T13:14:35.719Z,1.45
2023-05-19T13:17:03.248Z,1.60
2023-05-19T13:19:30.031Z,1.60
2023-05-19T13:21:57.347Z,1.80
2023-05-19T13:24:24.261Z,1.85
2023-05-19T13:26:51.062Z,1.67
2023-05-19T13:29:18.133Z,1.70
2023-05-19T13:31:44.943Z,1.85
2023-05-19T13:34:11.655Z,1.63
2023-05-19T13:36:39.128Z,1.73
2023-05-19T13:39:06.015Z,1.77
2023-05-19T13:41:32.914Z,1.98
2023-05-19T13:44:01.322Z,1.60
2023-05-19T13:46:40.777Z,1.70
2023-05-19T13:49:11.319Z,1.50
2023-05-19T13:51:38.057Z,1.50
2023-05-19T13:54:05.097Z,1.65
2023-05-19T13:56:31.977Z,1.73
2023-05-19T13:58:59.030Z,1.77
2023-05-19T14:01:25.825Z,1.50
2023-05-19T14:03:53.071Z,1.80
2023-05-19T14:06:19.908Z,1.73
2023-05-19T14:08:46.693Z,1.98
2023-05-19T14:11:21.573Z,1.77
2023-05-19T14:13:52.755Z,1.80
2023-05-19T14:16:22.817Z,1.48
2023-05-19T14:18:49.647Z,1.73
2023-05-19T14:21:16.430Z,1.75
2023-05-19T14:23:43.188Z,1.97
2023-05-19T14:26:10.053Z,1.60
2023-05-19T14:28:36.778Z,1.80
2023-05-19T14:31:03.681Z,1.90
2023-05-19T14:33:34.919Z,1.70
2023-05-19T14:36:02.365Z,1.80
2023-05-19T14:38:29.645Z,1.80
2023-05-19T14:40:57.066Z,1.70
2023-05-19T14:43:24.015Z,1.90
2023-05-19T14:45:50.759Z,2.15
2023-05-19T14:48:17.972Z,1.90
2023-05-19T14:50:44.884Z,1.63
2023-05-19T14:53:11.757Z,1.55
2023-05-19T14:55:41.588Z,2.10
2023-05-19T14:58:19.991Z,2.13
2023-05-19T15:00:54.098Z,2.05
2023-05-19T15:03:23.092Z,1.90
2023-05-19T15:05:49.885Z,1.50
2023-05-19T15:08:19.061Z,1.60
2023-05-19T15:10:49.611Z,2.30
2023-05-19T15:13:18.736Z,1.50
2023-05-19T15:15:45.967Z,1.70
2023-05-19T15:18:13.233Z,1.77
2023-05-19T15:20:40.074Z,1.70
2023-05-19T15:23:06.806Z,1.50
2023-05-19T15:25:33.593Z,1.60
2023-05-19T15:28:00.278Z,1.60
2023-05-19T15:30:27.064Z,1.70
2023-05-19T15:32:53.803Z,1.63
2023-05-19T15:35:20.536Z,2.30
2023-05-19T15:37:47.219Z,1.80
2023-05-19T15:40:14.076Z,1.63
2023-05-19T15:42:40.946Z,1.85
2023-05-19T15:45:08.434Z,1.95
2023-05-19T15:47:35.178Z,1.67
2023-05-19T15:50:01.950Z,2.15
2023-05-19T15:52:29.316Z,2.33
2023-05-19T15:54:58.889Z,1.77
2023-05-19T15:57:25.865Z,2.30
2023-05-19T15:59:52.616Z,2.05
2023-05-19T16:02:19.712Z,2.20
2023-05-19T16:04:46.482Z,2.10
2023-05-19T16:07:13.250Z,1.80
2023-05-19T16:09:41.414Z,1.63
2023-05-19T16:12:08.425Z,2.30
2023-05-19T16:14:36.770Z,2.00
2023-05-19T16:17:11.394Z,1.92
2023-05-19T16:19:38.469Z,2.00
2023-05-19T16:22:05.564Z,1.75
2023-05-19T16:24:32.272Z,1.70
2023-05-19T16:26:58.962Z,1.50
2023-05-19T16:29:25.643Z,1.77
2023-05-19T16:31:52.476Z,1.70
2023-05-19T16:34:19.298Z,1.40
2023-05-19T16:36:46.049Z,1.60
2023-05-19T16:39:12.821Z,1.60
2023-05-19T16:41:39.578Z,1.60
2023-05-19T16:44:06.319Z,1.52
2023-05-19T16:46:33.125Z,1.70
2023-05-19T16:48:59.885Z,1.92
2023-05-19T16:51:26.618Z,1.70
2023-05-19T16:53:53.330Z,1.60
2023-05-19T16:56:20.047Z,1.40
2023-05-19T16:58:46.855Z,1.60
2023-05-19T17:01:13.676Z,1.60
2023-05-19T17:03:40.786Z,1.67
2023-05-19T17:06:07.590Z,1.67
2023-05-19T17:08:34.367Z,1.67
2023-05-19T17:11:01.312Z,1.70
2023-05-19T17:13:29.555Z,1.90
2023-05-19T17:15:56.407Z,1.60
2023-05-19T17:18:23.129Z,1.52
2023-05-19T17:20:49.808Z,1.50
2023-05-19T17:23:16.825Z,1.60
2023-05-19T17:25:43.592Z,1.75
2023-05-19T17:28:10.298Z,1.67
2023-05-19T17:30:39.920Z,1.80
2023-05-19T17:33:06.721Z,1.73
2023-05-19T17:35:34.797Z,1.63
2023-05-19T17:38:01.543Z,1.95
2023-05-19T17:40:28.532Z,1.80
2023-05-19T17:42:55.324Z,1.40
2023-05-19T17:45:22.183Z,1.80
2023-05-19T17:47:48.971Z,1.90
2023-05-19T17:50:15.870Z,1.90
2023-05-19T17:52:42.934Z,1.95
2023-05-19T17:55:11.007Z,1.80
2023-05-19T17:57:40.474Z,1.90
2023-05-19T18:00:07.890Z,1.80
2023-05-19T18:02:35.010Z,1.75
2023-05-19T18:05:02.190Z,1.98
2023-05-19T18:07:29.897Z,1.85
2023-05-19T18:09:57.579Z,1.70
2023-05-19T18:12:24.271Z,1.90
2023-05-19T18:14:53.274Z,1.92
2023-05-19T18:17:20.134Z,1.90
2023-05-19T18:19:46.878Z,1.60
2023-05-19T18:22:14.815Z,1.88
2023-05-19T18:24:41.602Z,1.90
2023-05-19T18:27:08.452Z,1.83
2023-05-19T18:29:35.241Z,1.70
2023-05-19T18:32:02.044Z,1.70
2023-05-19T18:34:29.997Z,1.70
2023-05-19T18:36:58.315Z,2.00
2023-05-19T18:39:26.573Z,2.05
2023-05-19T18:41:54.696Z,2.15
2023-05-19T18:44:21.397Z,1.95
2023-05-19T18:46:49.912Z,1.88
2023-05-19T18:49:17.147Z,1.90
2023-05-19T18:51:43.944Z,1.80
2023-05-19T18:54:12.349Z,1.80
2023-05-19T18:56:39.157Z,2.10
2023-05-19T18:59:05.970Z,1.63
2023-05-19T19:01:32.831Z,1.77
2023-05-19T19:04:00.559Z,1.70
2023-05-19T19:06:27.541Z,2.10
2023-05-19T19:08:54.540Z,1.95
2023-05-19T19:11:21.486Z,1.60
2023-05-19T19:13:51.202Z,1.70
2023-05-19T19:16:18.225Z,2.00
2023-05-19T19:18:45.034Z,1.70
2023-05-19T19:21:11.799Z,1.60
2023-05-19T19:23:38.528Z,1.80
2023-05-19T19:26:06.961Z,1.88
2023-05-19T19:28:33.852Z,2.00
2023-05-19T19:31:00.562Z,1.70
2023-05-19T19:33:27.398Z,1.75
2023-05-19T19:35:54.255Z,1.63
2023-05-19T19:38:21.170Z,2.30
2023-05-19T19:40:48.008Z,1.83
2023-05-19T19:43:14.766Z,1.95
2023-05-19T19:45:41.983Z,1.90
2023-05-19T19:48:08.698Z,2.10
2023-05-19T19:50:35.616Z,2.10
2023-05-19T19:53:02.560Z,1.83
2023-05-19T19:55:30.867Z,2.20
2023-05-19T19:57:57.763Z,1.98
2023-05-19T20:00:24.462Z,2.20
2023-05-19T20:03:04.396Z,2.20
2023-05-19T20:05:31.614Z,2.05
2023-05-19T20:07:58.426Z,2.20
2023-05-19T20:10:25.216Z,1.90
2023-05-19T20:12:52.159Z,2.72
2023-05-19T20:15:19.658Z,3.35
2023-05-19T20:17:46.531Z,2.88
2023-05-19T20:20:13.671Z,2.95
2023-05-19T20:22:41.507Z,2.63
2023-05-19T20:25:08.697Z,2.90
2023-05-19T20:27:35.749Z,2.87
2023-05-19T20:30:02.474Z,2.33
2023-05-19T20:32:29.323Z,2.60
2023-05-19T20:34:56.530Z,2.20
2023-05-19T20:37:23.336Z,2.33
2023-05-19T20:39:50.458Z,2.85
2023-05-19T20:42:17.214Z,3.20
2023-05-19T20:44:44.046Z,2.72
2023-05-19T20:47:10.892Z,2.75
2023-05-19T20:49:37.709Z,5.63
2023-05-19T20:52:04.759Z,3.30
2023-05-19T20:54:31.537Z,2.75
2023-05-19T20:56:58.252Z,3.40
2023-05-19T20:59:24.966Z,3.93
2023-05-19T21:01:51.717Z,2.45
2023-05-19T21:04:18.528Z,3.05
2023-05-19T21:06:45.249Z,2.92
2023-05-19T21:09:14.303Z,2.55
2023-05-19T21:11:41.245Z,4.57
2023-05-19T21:14:08.485Z,3.33
2023-05-19T21:16:38.773Z,3.45
2023-05-19T21:19:06.596Z,3.60
2023-05-19T21:21:33.757Z,3.20
2023-05-19T21:24:01.044Z,3.13
2023-05-19T21:26:27.884Z,3.10
2023-05-19T21:28:54.627Z,3.08
2023-05-19T21:31:21.343Z,2.40
2023-05-19T21:33:48.093Z,2.50
2023-05-19T21:36:14.833Z,2.77
2023-05-19T21:38:41.551Z,2.63
2023-05-19T21:41:08.278Z,2.45
2023-05-19T21:43:35.008Z,2.60
2023-05-19T21:46:01.784Z,3.03
2023-05-19T21:48:28.592Z,3.10
2023-05-19T21:50:55.810Z,2.97
2023-05-19T21:53:22.533Z,2.60
2023-05-19T21:55:49.515Z,2.83
2023-05-19T21:58:16.306Z,2.53
2023-05-19T22:00:47.517Z,3.00
2023-05-19T22:03:14.490Z,2.80
2023-05-19T22:05:41.511Z,3.00
2023-05-19T22:08:08.477Z,2.88
2023-05-19T22:10:37.224Z,2.58
2023-05-19T22:13:04.086Z,2.70
2023-05-19T22:15:30.728Z,2.50
2023-05-19T22:17:57.683Z,2.90
2023-05-19T22:20:24.570Z,2.80
2023-05-19T22:22:51.389Z,2.67
2023-05-19T22:25:18.234Z,2.65
2023-05-19T22:27:44.883Z,2.85
2023-05-19T22:30:12.169Z,2.78
2023-05-19T22:32:38.907Z,3.40
2023-05-19T22:35:06.608Z,2.90
2023-05-19T22:37:33.357Z,2.80
2023-05-19T22:40:00.103Z,2.95
2023-05-19T22:42:27.034Z,2.63
2023-05-19T22:44:53.783Z,2.63
2023-05-19T22:47:20.513Z,2.83
2023-05-19T22:49:49.037Z,2.57
2023-05-19T22:52:15.747Z,2.70
2023-05-19T22:54:42.770Z,2.67
2023-05-19T22:57:10.033Z,2.40
2023-05-19T22:59:39.196Z,2.70
2023-05-19T23:02:06.074Z,3.00
2023-05-19T23:04:34.166Z,2.60
2023-05-19T23:07:01.201Z,2.90
2023-05-19T23:09:28.245Z,2.95
2023-05-19T23:11:54.942Z,2.55
2023-05-19T23:14:22.792Z,2.50
2023-05-19T23:16:49.597Z,2.60
2023-05-19T23:19:17.012Z,2.77
2023-05-19T23:21:45.768Z,2.70
2023-05-19T23:24:12.491Z,2.72
2023-05-19T23:26:39.165Z,2.75
2023-05-19T23:29:05.888Z,2.50
2023-05-19T23:31:34.824Z,2.75
2023-05-19T23:34:03.355Z,3.00
2023-05-19T23:36:30.064Z,3.00
2023-05-19T23:38:56.877Z,2.80
2023-05-19T23:41:23.555Z,2.80
2023-05-19T23:43:50.252Z,2.72
2023-05-19T23:46:17.088Z,3.00
2023-05-19T23:48:43.946Z,2.45
2023-05-19T23:51:10.626Z,3.17
2023-05-19T23:53:37.468Z,2.60
2023-05-19T23:56:04.265Z,2.80
2023-05-19T23:58:32.448Z,2.60
